createdAt,value
2018-02-14T00:01:12.612Z,24.85
2018-02-14T00:03:40.872Z,24.25
2018-02-14T00:06:08.375Z,24.30
2018-02-14T00:08:35.912Z,22.83
2018-02-14T00:11:03.428Z,23.25
2018-02-14T00:13:30.951Z,24.42
2018-02-14T00:15:58.440Z,24.30
2018-02-14T00:18:26.715Z,24.25
2018-02-14T00:20:54.992Z,24.90
2018-02-14T00:23:23.379Z,24.85
2018-02-14T00:25:51.784Z,25.75
2018-02-14T00:28:19.291Z,24.27
2018-02-14T00:30:46.816Z,24.08
2018-02-14T00:33:14.318Z,25.55
2018-02-14T00:35:42.597Z,24.77
2018-02-14T00:38:10.853Z,23.73
2018-02-14T00:40:38.377Z,24.12
2018-02-14T00:43:05.918Z,24.17
2018-02-14T00:45:33.451Z,24.20
2018-02-14T00:48:01.727Z,24.65
2018-02-14T00:50:30.015Z,24.85
2018-02-14T00:52:57.567Z,25.20
2018-02-14T00:55:26.924Z,26.73
2018-02-14T00:57:54.578Z,25.67
2018-02-14T01:00:22.968Z,25.45
2018-02-14T01:02:50.539Z,25.45
2018-02-14T01:05:18.268Z,24.85
2018-02-14T01:07:45.847Z,26.02
2018-02-14T01:10:14.411Z,25.00
2018-02-14T01:12:41.991Z,27.55
2018-02-14T01:15:09.614Z,26.15
2018-02-14T01:17:37.197Z,27.60
2018-02-14T02:42:06.333Z,27.62
2018-02-14T02:44:34.590Z,30.17
2018-02-14T02:47:02.237Z,30.95
2018-02-14T02:49:30.613Z,31.17
2018-02-14T02:51:58.962Z,31.42
2018-02-14T02:54:27.017Z,32.42
2018-02-14T02:56:54.620Z,31.70
2018-02-14T02:59:22.973Z,32.63
2018-02-14T03:01:50.673Z,32.42
2018-02-14T03:04:19.033Z,31.27
2018-02-14T03:06:46.633Z,32.33
2018-02-14T03:09:14.213Z,31.52
2018-02-14T03:11:41.796Z,32.20
2018-02-14T03:14:09.404Z,30.88
2018-02-14T03:16:36.997Z,31.85
2018-02-14T03:19:04.600Z,32.95
2018-02-14T03:21:32.951Z,31.90
2018-02-14T03:24:00.532Z,33.00
2018-02-14T03:26:28.135Z,32.97
2018-02-14T03:28:55.719Z,33.20
2018-02-14T03:31:23.339Z,32.80
2018-02-14T03:33:51.701Z,34.00
2018-02-14T03:36:19.286Z,32.67
2018-02-14T03:38:46.876Z,33.05
2018-02-14T03:41:14.499Z,34.25
2018-02-14T03:43:42.879Z,32.42
2018-02-14T03:46:11.224Z,34.15
2018-02-14T03:48:38.920Z,34.38
2018-02-14T03:51:07.286Z,34.08
2018-02-14T03:53:35.646Z,33.22
2018-02-14T03:56:03.258Z,33.63
2018-02-14T03:58:30.844Z,34.10
2018-02-14T04:00:58.433Z,33.90
2018-02-14T04:03:26.059Z,34.83
2018-02-14T04:05:53.655Z,34.47
2018-02-14T04:08:21.258Z,34.10
2018-02-14T04:10:48.837Z,35.72
2018-02-14T04:13:16.457Z,35.38
2018-02-14T04:15:44.827Z,36.47
2018-02-14T04:18:14.054Z,36.83
2018-02-14T04:20:41.665Z,35.38
2018-02-14T04:23:09.247Z,35.95
2018-02-14T04:25:36.834Z,37.78
2018-02-14T04:28:09.064Z,36.17
2018-02-14T04:30:36.652Z,35.53
2018-02-14T04:33:04.355Z,35.25
2018-02-14T04:35:31.952Z,35.55
2018-02-14T04:37:59.559Z,36.90
2018-02-14T04:40:27.184Z,37.40
2018-02-14T04:42:54.780Z,36.28
2018-02-14T04:45:22.364Z,36.90
2018-02-14T04:47:49.955Z,38.15
2018-02-14T04:50:17.543Z,35.85
2018-02-14T04:52:45.895Z,39.30
2018-02-14T04:55:13.637Z,37.35
2018-02-14T04:57:41.247Z,37.70
2018-02-14T05:00:08.857Z,38.35
2018-02-14T05:02:36.435Z,37.47
2018-02-14T05:05:04.023Z,38.83
2018-02-14T05:07:32.400Z,38.08
2018-02-14T05:10:00.752Z,37.67
2018-02-14T05:12:28.349Z,39.22
2018-02-14T05:14:55.987Z,38.80
2018-02-14T05:17:23.585Z,39.58
2018-02-14T05:19:51.216Z,39.72
2018-02-14T05:22:19.562Z,40.83
2018-02-14T05:24:47.159Z,39.25
2018-02-14T05:27:15.533Z,38.83
2018-02-14T05:29:43.884Z,38.05
2018-02-14T05:32:11.488Z,39.45
2018-02-14T05:34:39.080Z,40.72
2018-02-14T05:37:06.663Z,40.33
2018-02-14T05:39:34.244Z,42.25
2018-02-14T05:42:02.633Z,37.78
2018-02-14T05:44:31.032Z,38.67
2018-02-14T05:46:58.681Z,46.10
2018-02-14T05:49:27.026Z,39.15
2018-02-14T05:51:54.720Z,39.95
2018-02-14T05:54:23.101Z,39.28
2018-02-14T05:56:51.480Z,40.88
2018-02-14T05:59:19.837Z,38.60
2018-02-14T06:01:47.439Z,39.35
2018-02-14T06:04:15.044Z,38.42
2018-02-14T06:06:42.639Z,38.22
2018-02-14T06:09:11.012Z,37.10
2018-02-14T06:11:39.400Z,38.60
2018-02-14T06:14:07.744Z,38.17
2018-02-14T06:16:35.339Z,38.30
2018-02-14T06:19:04.484Z,38.10
2018-02-14T06:21:32.221Z,37.75
2018-02-14T06:23:59.957Z,38.70
2018-02-14T06:26:28.330Z,37.45
2018-02-14T06:28:56.702Z,37.47
2018-02-14T06:31:24.289Z,39.55
2018-02-14T06:33:51.907Z,38.35
2018-02-14T06:36:19.544Z,37.85
2018-02-14T06:38:47.398Z,37.08
2018-02-14T06:41:14.992Z,38.00
2018-02-14T06:43:42.579Z,36.60
2018-02-14T06:46:11.009Z,37.95
2018-02-14T06:48:38.595Z,37.20
2018-02-14T06:51:06.177Z,32.20
2018-02-14T06:53:34.540Z,38.95
2018-02-14T06:56:02.239Z,40.12
2018-02-14T06:58:30.617Z,38.72
2018-02-14T07:00:59.033Z,38.55
2018-02-14T07:03:26.620Z,37.70
2018-02-14T07:05:54.213Z,38.95
2018-02-14T07:08:22.571Z,39.25
2018-02-14T07:10:50.200Z,38.47
2018-02-14T07:13:17.790Z,38.95
2018-02-14T07:15:45.372Z,38.67
2018-02-14T07:18:13.788Z,39.17
2018-02-14T07:20:41.439Z,37.25
2018-02-14T07:23:09.048Z,38.03
2018-02-14T07:25:36.729Z,39.10
2018-02-14T07:28:05.109Z,41.75
2018-02-14T07:30:33.460Z,42.00
2018-02-14T07:33:01.051Z,42.15
2018-02-14T07:35:29.425Z,40.75
2018-02-14T07:37:57.783Z,39.70
2018-02-14T07:40:25.379Z,42.95
2018-02-14T07:42:53.812Z,42.20
2018-02-14T07:45:21.528Z,42.25
2018-02-14T07:47:49.168Z,40.90
2018-02-14T07:50:17.584Z,41.33
2018-02-14T07:52:45.187Z,42.33
2018-02-14T07:55:12.777Z,42.05
2018-02-14T07:57:41.157Z,40.80
2018-02-14T08:00:10.682Z,41.97
2018-02-14T08:02:38.298Z,42.60
2018-02-14T08:05:06.653Z,42.90
2018-02-14T08:07:34.260Z,42.83
2018-02-14T08:10:02.619Z,44.13
2018-02-14T08:12:30.245Z,42.20
2018-02-14T08:14:57.834Z,41.25
2018-02-14T08:17:25.426Z,42.67
2018-02-14T08:19:53.040Z,44.33
2018-02-14T08:22:20.615Z,43.53
2018-02-14T08:24:48.209Z,42.78
2018-02-14T08:27:16.569Z,44.92
2018-02-14T08:29:44.156Z,44.90
2018-02-14T08:32:11.792Z,45.08
2018-02-14T08:34:39.388Z,44.78
2018-02-14T08:37:06.989Z,44.40
2018-02-14T08:39:34.608Z,46.10
2018-02-14T08:42:02.244Z,50.92
2018-02-14T08:44:30.599Z,55.17
2018-02-14T08:46:58.187Z,49.38
2018-02-14T08:49:26.864Z,48.87
2018-02-14T08:51:55.263Z,49.90
2018-02-14T08:54:22.856Z,49.08
2018-02-14T08:56:50.451Z,47.72
2018-02-14T08:59:18.028Z,46.50
2018-02-14T09:01:46.402Z,46.47
2018-02-14T09:04:14.784Z,46.30
2018-02-14T09:06:43.145Z,45.45
2018-02-14T09:09:10.752Z,45.60
2018-02-14T09:11:38.364Z,46.35
2018-02-14T09:14:05.965Z,45.70
2018-02-14T09:16:33.612Z,45.08
2018-02-14T09:19:01.208Z,45.03
2018-02-14T09:21:28.800Z,44.38
2018-02-14T09:23:56.400Z,44.03
2018-02-14T09:26:24.761Z,42.70
2018-02-14T09:28:52.361Z,44.20
2018-02-14T09:31:19.971Z,43.50
2018-02-14T09:33:48.374Z,43.03
2018-02-14T09:36:16.736Z,43.13
2018-02-14T09:38:44.403Z,42.37
2018-02-14T09:41:12.822Z,42.40
2018-02-14T09:43:40.423Z,42.87
2018-02-14T09:46:08.008Z,42.80
2018-02-14T09:48:36.351Z,42.17
2018-02-14T09:51:03.935Z,41.67
2018-02-14T09:53:31.532Z,44.10
2018-02-14T09:55:59.167Z,42.80
2018-02-14T09:58:26.854Z,43.30
2018-02-14T10:00:54.478Z,44.47
2018-02-14T10:03:22.178Z,44.13
2018-02-14T10:05:49.886Z,44.13
2018-02-14T10:08:17.565Z,44.40
2018-02-14T10:10:45.148Z,45.93
2018-02-14T10:13:13.505Z,46.23
2018-02-14T10:15:41.864Z,45.93
2018-02-14T10:18:09.493Z,45.23
2018-02-14T10:20:37.068Z,45.40
2018-02-14T10:23:04.688Z,44.40
2018-02-14T10:25:33.042Z,43.67
2018-02-14T10:28:00.648Z,41.40
2018-02-14T10:30:28.297Z,41.37
2018-02-14T10:32:57.339Z,40.83
2018-02-14T10:35:24.962Z,40.77
2018-02-14T10:37:52.627Z,42.57
2018-02-14T10:40:20.226Z,41.33
2018-02-14T10:42:47.878Z,41.97
2018-02-14T10:45:15.465Z,41.20
2018-02-14T10:47:43.094Z,38.77
2018-02-14T10:50:10.710Z,39.27
2018-02-14T10:52:38.312Z,40.63
2018-02-14T10:55:05.904Z,40.00
2018-02-14T10:57:33.503Z,39.13
2018-02-14T11:00:01.864Z,39.73
2018-02-14T11:02:35.799Z,41.67
2018-02-14T11:05:09.745Z,49.23
2018-02-14T11:07:37.365Z,42.00
2018-02-14T11:10:05.556Z,38.03
2018-02-14T11:12:33.155Z,37.97
2018-02-14T11:15:00.796Z,38.43
2018-02-14T11:17:28.391Z,36.37
2018-02-14T11:19:55.989Z,43.50
2018-02-14T11:22:23.612Z,37.33
2018-02-14T11:24:51.208Z,36.07
2018-02-14T11:27:19.688Z,37.67
2018-02-14T11:29:48.036Z,37.73
2018-02-14T11:32:15.637Z,36.63
2018-02-14T11:34:43.210Z,38.83
2018-02-14T11:37:12.021Z,39.43
2018-02-14T11:39:39.664Z,37.77
2018-02-14T11:42:07.263Z,37.80
2018-02-14T11:44:34.873Z,32.43
2018-02-14T11:47:02.483Z,32.83
2018-02-14T11:49:30.085Z,31.87
2018-02-14T11:51:57.672Z,35.77
2018-02-14T11:54:25.341Z,34.43
2018-02-14T11:56:52.963Z,33.13
2018-02-14T11:59:21.301Z,32.10
2018-02-14T12:01:48.909Z,33.83
2018-02-14T12:04:16.497Z,34.67
2018-02-14T12:06:44.114Z,32.70
2018-02-14T12:09:12.487Z,32.67
2018-02-14T12:11:41.650Z,33.70
2018-02-14T12:14:09.260Z,32.93
2018-02-14T12:16:37.611Z,32.13
2018-02-14T12:19:05.284Z,31.93
2018-02-14T12:21:32.949Z,30.63
2018-02-14T12:24:01.429Z,29.67
2018-02-14T12:26:29.845Z,28.27
2018-02-14T12:28:57.424Z,28.57
2018-02-14T12:31:25.047Z,28.30
2018-02-14T12:33:53.491Z,27.47
2018-02-14T12:36:21.178Z,27.53
2018-02-14T12:38:49.556Z,26.87
2018-02-14T12:41:17.944Z,27.77
2018-02-14T12:43:46.306Z,27.07
2018-02-14T12:46:14.003Z,26.50
2018-02-14T12:48:41.608Z,27.87
2018-02-14T12:51:09.209Z,27.27
2018-02-14T12:53:37.594Z,26.33
2018-02-14T12:56:06.857Z,27.70
2018-02-14T12:58:34.547Z,26.23
2018-02-14T13:01:02.925Z,25.50
2018-02-14T13:03:31.283Z,24.60
2018-02-14T13:05:59.729Z,25.40
2018-02-14T13:08:27.345Z,20.93
2018-02-14T13:10:55.694Z,19.10
2018-02-14T13:13:23.313Z,19.70
2018-02-14T13:15:50.959Z,20.90
2018-02-14T13:18:18.565Z,21.00
2018-02-14T13:20:46.261Z,22.60
2018-02-14T13:23:14.623Z,24.30
2018-02-14T13:25:42.243Z,25.03
2018-02-14T13:28:09.864Z,25.50
2018-02-14T13:30:38.301Z,24.93
2018-02-14T13:33:05.887Z,23.30
2018-02-14T13:35:33.495Z,23.60
2018-02-14T13:38:01.158Z,24.07
2018-02-14T13:40:28.764Z,24.67
2018-02-14T13:42:56.460Z,24.03
2018-02-14T13:45:24.804Z,22.20
2018-02-14T13:47:52.441Z,21.23
2018-02-14T13:50:20.030Z,20.00
2018-02-14T13:52:47.630Z,19.80
2018-02-14T13:55:15.281Z,21.90
2018-02-14T13:57:43.647Z,22.63
2018-02-14T14:00:12.056Z,23.70
2018-02-14T14:02:39.639Z,22.07
2018-02-14T14:05:07.261Z,22.43
2018-02-14T14:07:35.604Z,21.33
2018-02-14T14:10:03.212Z,23.10
2018-02-14T14:12:30.852Z,20.27
2018-02-14T14:14:59.391Z,15.30
2018-02-14T14:17:27.016Z,15.77
2018-02-14T14:19:54.672Z,14.93
2018-02-14T14:22:23.178Z,16.63
2018-02-14T14:24:50.814Z,17.87
2018-02-14T14:27:18.619Z,19.00
2018-02-14T14:29:46.254Z,19.40
2018-02-14T14:32:13.841Z,20.00
2018-02-14T14:34:41.453Z,21.27
2018-02-14T14:37:09.832Z,21.10
2018-02-14T14:39:38.198Z,18.53
2018-02-14T14:42:05.934Z,19.33
2018-02-14T14:44:33.514Z,16.80
2018-02-14T14:47:01.129Z,16.40
2018-02-14T14:49:28.705Z,16.37
2018-02-14T14:51:56.291Z,17.97
2018-02-14T14:54:23.988Z,17.87
2018-02-14T14:56:52.365Z,19.60
2018-02-14T14:59:20.759Z,19.07
2018-02-14T15:01:48.929Z,18.87
2018-02-14T15:04:16.670Z,19.20
2018-02-14T15:06:45.025Z,19.40
2018-02-14T15:09:12.631Z,21.13
2018-02-14T15:11:40.213Z,21.70
2018-02-14T15:14:07.823Z,21.23
2018-02-14T15:16:35.518Z,23.13
2018-02-14T15:19:03.152Z,22.60
2018-02-14T15:21:30.818Z,22.20
2018-02-14T15:23:58.446Z,23.03
2018-02-14T15:26:26.032Z,23.13
2018-02-14T15:28:53.788Z,23.77
2018-02-14T15:31:21.381Z,24.27
2018-02-14T15:33:49.860Z,25.30
2018-02-14T15:36:18.208Z,26.20
2018-02-14T15:38:46.228Z,28.43
2018-02-14T15:41:13.820Z,27.17
2018-02-14T15:43:41.446Z,32.40
2018-02-14T15:46:09.041Z,32.60
2018-02-14T15:48:36.695Z,33.67
2018-02-14T15:51:04.286Z,34.57
2018-02-14T15:53:32.020Z,34.07
2018-02-14T15:56:00.245Z,33.33
2018-02-14T15:58:28.615Z,31.93
2018-02-14T16:00:56.200Z,33.33
2018-02-14T16:03:24.006Z,33.70
2018-02-14T16:05:52.472Z,32.50
2018-02-14T16:08:20.092Z,32.97
2018-02-14T16:10:48.578Z,33.58
2018-02-14T16:13:17.031Z,33.75
2018-02-14T16:15:44.697Z,33.42
2018-02-14T16:18:13.092Z,31.87
2018-02-14T16:20:41.484Z,32.20
2018-02-14T16:23:09.870Z,31.37
2018-02-14T16:25:37.471Z,30.63
2018-02-14T16:28:05.081Z,31.90
2018-02-14T16:30:33.460Z,32.70
2018-02-14T16:33:01.897Z,31.30
2018-02-14T16:35:29.490Z,31.27
2018-02-14T16:37:57.924Z,33.37
2018-02-14T16:40:25.585Z,35.33
2018-02-14T16:42:53.308Z,35.43
2018-02-14T16:45:21.058Z,36.77
2018-02-14T16:47:49.432Z,36.60
2018-02-14T16:50:17.865Z,34.70
2018-02-14T16:52:45.533Z,37.03
2018-02-14T16:55:13.134Z,34.97
2018-02-14T16:57:41.578Z,37.97
2018-02-14T17:00:09.184Z,40.42
2018-02-14T17:02:37.820Z,40.58
2018-02-14T17:05:05.605Z,39.83
2018-02-14T17:07:33.196Z,39.75
2018-02-14T17:10:01.672Z,41.55
2018-02-14T17:12:30.136Z,41.60
2018-02-14T17:14:57.848Z,40.90
2018-02-14T17:17:25.440Z,42.35
2018-02-14T17:19:53.029Z,41.83
2018-02-14T17:22:20.611Z,42.85
2018-02-14T17:24:48.976Z,43.78
2018-02-14T17:27:17.365Z,43.38
2018-02-14T17:29:45.718Z,44.08
2018-02-14T17:32:13.404Z,45.67
2018-02-14T17:34:42.082Z,46.83
2018-02-14T17:37:09.686Z,44.42
2018-02-14T17:39:37.313Z,46.78
2018-02-14T17:42:05.679Z,47.33
2018-02-14T17:44:33.272Z,49.17
2018-02-14T17:47:01.317Z,49.25
2018-02-14T17:49:29.675Z,51.05
2018-02-14T17:51:57.385Z,51.92
2018-02-14T17:54:24.978Z,51.15
2018-02-14T17:56:52.596Z,50.38
2018-02-14T17:59:21.167Z,51.50
2018-02-14T18:01:48.735Z,51.20
2018-02-14T18:04:17.083Z,51.42
2018-02-14T18:06:44.701Z,50.53
2018-02-14T18:09:12.313Z,53.17
2018-02-14T18:11:39.909Z,53.00
2018-02-14T18:14:07.528Z,51.80
2018-02-14T18:16:35.126Z,54.53
2018-02-14T18:19:02.722Z,54.03
2018-02-14T18:21:30.397Z,52.45
2018-02-14T18:23:57.993Z,54.45
2018-02-14T18:26:26.453Z,52.55
2018-02-14T18:28:54.849Z,53.78
2018-02-14T18:31:22.503Z,53.28
2018-02-14T18:33:50.140Z,54.25
2018-02-14T18:36:18.757Z,51.70
2018-02-14T18:38:47.160Z,53.05
2018-02-14T18:41:15.822Z,51.67
2018-02-14T18:43:43.487Z,53.85
2018-02-14T18:46:11.135Z,52.50
2018-02-14T18:48:38.740Z,55.28
2018-02-14T18:51:06.402Z,56.03
2018-02-14T18:53:33.994Z,56.40
2018-02-14T18:56:01.599Z,54.35
2018-02-14T18:58:29.981Z,54.88
2018-02-14T19:00:58.336Z,54.60
2018-02-14T19:03:25.969Z,56.40
2018-02-14T19:05:53.551Z,55.10
2018-02-14T19:08:21.892Z,54.70
2018-02-14T19:10:49.534Z,58.83
2018-02-14T19:13:17.184Z,54.80
2018-02-14T19:15:45.560Z,51.67
2018-02-14T19:18:14.010Z,52.55
2018-02-14T19:20:41.701Z,55.90
2018-02-14T19:23:10.069Z,50.42
2018-02-14T19:25:37.656Z,49.50
2018-02-14T19:28:05.254Z,49.78
2018-02-14T19:30:33.903Z,46.37
2018-02-14T19:33:01.548Z,48.17
2018-02-14T19:35:30.879Z,51.37
2018-02-14T19:37:58.497Z,47.55
2018-02-14T19:40:27.202Z,48.85
2018-02-14T19:42:55.621Z,47.65
2018-02-14T19:45:23.216Z,48.38
2018-02-14T19:47:50.805Z,49.60
2018-02-14T19:50:19.167Z,49.30
2018-02-14T19:52:46.773Z,48.87
2018-02-14T19:55:14.414Z,46.00
2018-02-14T19:57:42.122Z,48.95
2018-02-14T20:00:09.885Z,50.78
2018-02-14T20:02:37.513Z,47.50
2018-02-14T20:05:05.131Z,48.70
2018-02-14T20:07:32.866Z,48.65
2018-02-14T20:10:00.481Z,47.08
2018-02-14T20:12:28.119Z,47.97
2018-02-14T20:14:55.733Z,46.47
2018-02-14T20:17:23.332Z,44.97
2018-02-14T20:19:51.021Z,44.25
2018-02-14T20:22:19.556Z,43.22
2018-02-14T20:24:47.218Z,40.50
2018-02-14T20:27:14.873Z,42.22
2018-02-14T20:29:42.516Z,40.28
2018-02-14T20:32:11.078Z,39.50
2018-02-14T20:34:38.785Z,41.03
2018-02-14T20:37:07.034Z,39.63
2018-02-14T20:39:34.646Z,42.15
2018-02-14T20:42:02.243Z,40.17
2018-02-14T20:44:30.620Z,41.33
2018-02-14T20:46:58.766Z,41.78
2018-02-14T20:49:26.372Z,42.58
2018-02-14T20:51:54.168Z,41.97
2018-02-14T20:54:21.940Z,38.65
2018-02-14T20:56:49.649Z,38.83
2018-02-14T20:59:18.006Z,37.80
2018-02-14T21:01:46.328Z,37.63
2018-02-14T21:04:13.974Z,35.95
2018-02-14T21:06:42.848Z,36.50
2018-02-14T21:09:10.568Z,37.70
2018-02-14T21:11:38.149Z,37.20
2018-02-14T21:14:07.257Z,36.17
2018-02-14T21:16:35.621Z,37.53
2018-02-14T21:19:03.326Z,37.97
2018-02-14T21:21:30.972Z,38.90
2018-02-14T21:23:59.350Z,38.58
2018-02-14T21:26:27.734Z,40.58
2018-02-14T21:28:56.974Z,37.83
2018-02-14T21:31:25.679Z,40.15
2018-02-14T21:33:53.285Z,42.53
2018-02-14T21:36:21.666Z,44.50
2018-02-14T21:38:49.282Z,43.65
2018-02-14T21:41:17.131Z,42.22
2018-02-14T21:43:44.753Z,43.42
2018-02-14T21:46:12.445Z,41.97
2018-02-14T21:48:40.232Z,47.05
2018-02-14T21:51:07.828Z,43.15
2018-02-14T21:53:36.223Z,43.85
2018-02-14T21:56:03.817Z,43.10
2018-02-14T21:58:31.499Z,42.25
2018-02-14T22:00:59.102Z,44.00
2018-02-14T22:03:26.697Z,42.40
2018-02-14T22:05:54.928Z,40.97
2018-02-14T22:08:23.647Z,40.40
2018-02-14T22:10:51.252Z,41.10
2018-02-14T22:13:18.873Z,38.60
2018-02-14T22:15:46.475Z,38.22
2018-02-14T22:18:14.876Z,39.22
2018-02-14T22:20:42.581Z,38.13
2018-02-14T22:23:10.193Z,37.90
2018-02-14T22:25:38.585Z,37.30
2018-02-14T22:28:07.493Z,36.72
2018-02-14T22:30:35.084Z,39.60
2018-02-14T22:33:02.672Z,38.47
2018-02-14T22:35:30.287Z,40.50
2018-02-14T22:37:58.047Z,40.12
2018-02-14T22:40:25.760Z,40.28
2018-02-14T22:42:53.353Z,41.88
2018-02-14T22:45:21.711Z,42.15
2018-02-14T22:47:49.531Z,39.13
2018-02-14T22:50:17.133Z,41.13
2018-02-14T22:52:44.808Z,41.53
2018-02-14T22:55:12.388Z,42.28
2018-02-14T22:57:40.005Z,41.65
2018-02-14T23:00:07.678Z,44.22
2018-02-14T23:02:35.277Z,44.33
2018-02-14T23:05:02.861Z,44.80
2018-02-14T23:07:30.562Z,47.40
2018-02-14T23:09:58.921Z,48.53
2018-02-14T23:12:26.572Z,47.58
2018-02-14T23:14:54.176Z,44.33
2018-02-14T23:17:22.529Z,43.67
2018-02-14T23:19:50.162Z,46.75
2018-02-14T23:22:17.749Z,44.35
2018-02-14T23:24:46.141Z,48.85
2018-02-14T23:27:13.743Z,49.63
2018-02-14T23:29:41.328Z,47.75
2018-02-14T23:32:08.949Z,47.47
2018-02-14T23:34:37.304Z,47.30
2018-02-14T23:37:04.905Z,48.58
2018-02-14T23:39:33.420Z,48.42
2018-02-14T23:42:01.004Z,45.75
2018-02-14T23:44:29.319Z,43.78
2018-02-14T23:46:56.905Z,41.92
2018-02-14T23:49:24.491Z,43.67
2018-02-14T23:51:52.185Z,43.72
2018-02-14T23:54:20.531Z,42.65
2018-02-14T23:56:48.145Z,42.95
2018-02-14T23:59:15.726Z,41.67
